sensor_id;sensor_type;location;lat;lon;timestamp;pressure;altitude;pressure_sealevel;temperature;humidity
78671;BME280;68277;52.724;6.516;2023-05-09T00:02:04;101805.44;;;15.24;85.71
78671;BME280;68277;52.724;6.516;2023-05-09T00:04:30;101771.19;;;15.09;84.58
78671;BME280;68277;52.724;6.516;2023-05-09T00:06:56;101807.00;;;15.33;84.21
78671;BME280;68277;52.724;6.516;2023-05-09T00:09:22;101786.09;;;15.16;83.74
78671;BME280;68277;52.724;6.516;2023-05-09T00:11:47;101777.41;;;15.08;83.52
78671;BME280;68277;52.724;6.516;2023-05-09T00:14:13;101795.75;;;15.20;83.60
78671;BME280;68277;52.724;6.516;2023-05-09T00:16:38;101769.66;;;14.99;83.95
78671;BME280;68277;52.724;6.516;2023-05-09T00:19:04;101776.59;;;15.06;83.67
78671;BME280;68277;52.724;6.516;2023-05-09T00:21:29;101774.88;;;15.03;83.56
78671;BME280;68277;52.724;6.516;2023-05-09T00:23:55;101769.53;;;15.03;82.80
78671;BME280;68277;52.724;6.516;2023-05-09T00:26:22;101791.56;;;15.12;83.56
78671;BME280;68277;52.724;6.516;2023-05-09T00:28:47;101751.19;;;14.91;83.78
78671;BME280;68277;52.724;6.516;2023-05-09T00:31:13;101747.75;;;14.88;83.99
78671;BME280;68277;52.724;6.516;2023-05-09T00:33:38;101767.00;;;14.99;85.02
78671;BME280;68277;52.724;6.516;2023-05-09T00:36:04;101784.53;;;15.07;84.19
78671;BME280;68277;52.724;6.516;2023-05-09T00:38:29;101749.41;;;14.92;83.97
78671;BME280;68277;52.724;6.516;2023-05-09T00:40:55;101780.06;;;15.10;83.21
78671;BME280;68277;52.724;6.516;2023-05-09T00:43:20;101770.34;;;15.07;83.20
78671;BME280;68277;52.724;6.516;2023-05-09T00:45:46;101744.88;;;14.95;82.93
78671;BME280;68277;52.724;6.516;2023-05-09T00:48:13;101733.41;;;14.92;82.76
78671;BME280;68277;52.724;6.516;2023-05-09T00:50:39;101746.47;;;15.02;82.93
78671;BME280;68277;52.724;6.516;2023-05-09T00:53:05;101726.28;;;14.92;82.82
78671;BME280;68277;52.724;6.516;2023-05-09T00:55:32;101674.69;;;14.61;82.69
78671;BME280;68277;52.724;6.516;2023-05-09T00:57:57;101739.50;;;14.97;82.74
78671;BME280;68277;52.724;6.516;2023-05-09T01:00:23;101687.88;;;14.67;83.29
78671;BME280;68277;52.724;6.516;2023-05-09T01:02:52;101730.63;;;14.96;82.85
78671;BME280;68277;52.724;6.516;2023-05-09T01:05:18;101697.28;;;14.80;83.16
78671;BME280;68277;52.724;6.516;2023-05-09T01:08:06;101723.50;;;14.97;83.57
78671;BME280;68277;52.724;6.516;2023-05-09T01:10:59;101714.03;;;14.85;83.00
78671;BME280;68277;52.724;6.516;2023-05-09T01:13:48;101721.81;;;14.94;84.45
78671;BME280;68277;52.724;6.516;2023-05-09T01:16:42;101705.13;;;14.86;83.23
78671;BME280;68277;52.724;6.516;2023-05-09T01:19:18;101704.91;;;14.95;83.15
78671;BME280;68277;52.724;6.516;2023-05-09T01:21:51;101682.00;;;14.88;82.99
78671;BME280;68277;52.724;6.516;2023-05-09T01:27:21;101668.09;;;14.76;84.00
78671;BME280;68277;52.724;6.516;2023-05-09T01:29:59;101662.91;;;14.71;82.91
78671;BME280;68277;52.724;6.516;2023-05-09T01:32:27;101647.22;;;14.59;83.44
78671;BME280;68277;52.724;6.516;2023-05-09T01:34:58;101633.28;;;14.50;82.91
78671;BME280;68277;52.724;6.516;2023-05-09T01:37:32;101645.47;;;14.58;84.07
78671;BME280;68277;52.724;6.516;2023-05-09T01:40:07;101654.41;;;14.56;83.29
78671;BME280;68277;52.724;6.516;2023-05-09T01:42:59;101677.25;;;14.66;84.40
78671;BME280;68277;52.724;6.516;2023-05-09T01:45:26;101659.72;;;14.57;83.28
78671;BME280;68277;52.724;6.516;2023-05-09T01:47:53;101652.69;;;14.55;83.42
78671;BME280;68277;52.724;6.516;2023-05-09T01:50:19;101674.50;;;14.69;83.23
78671;BME280;68277;52.724;6.516;2023-05-09T01:52:47;101658.06;;;14.52;82.83
78671;BME280;68277;52.724;6.516;2023-05-09T01:55:14;101654.50;;;14.53;83.30
78671;BME280;68277;52.724;6.516;2023-05-09T01:57:41;101660.69;;;14.53;83.79
78671;BME280;68277;52.724;6.516;2023-05-09T02:00:09;101680.78;;;14.66;82.99
78671;BME280;68277;52.724;6.516;2023-05-09T02:02:40;101675.59;;;14.62;83.20
78671;BME280;68277;52.724;6.516;2023-05-09T02:05:08;101657.25;;;14.50;82.79
78671;BME280;68277;52.724;6.516;2023-05-09T02:07:36;101686.16;;;14.65;82.85
78671;BME280;68277;52.724;6.516;2023-05-09T02:10:02;101664.25;;;14.54;83.50
78671;BME280;68277;52.724;6.516;2023-05-09T02:12:29;101683.56;;;14.62;84.07
78671;BME280;68277;52.724;6.516;2023-05-09T02:14:54;101659.91;;;14.50;83.81
78671;BME280;68277;52.724;6.516;2023-05-09T02:17:20;101666.91;;;14.54;83.31
78671;BME280;68277;52.724;6.516;2023-05-09T02:19:46;101633.53;;;14.39;82.75
78671;BME280;68277;52.724;6.516;2023-05-09T02:22:12;101640.44;;;14.48;83.92
78671;BME280;68277;52.724;6.516;2023-05-09T02:24:37;101625.34;;;14.47;83.41
78671;BME280;68277;52.724;6.516;2023-05-09T02:27:07;101632.38;;;14.51;83.48
78671;BME280;68277;52.724;6.516;2023-05-09T02:29:39;101655.16;;;14.61;84.09
78671;BME280;68277;52.724;6.516;2023-05-09T02:32:19;101652.38;;;14.67;84.00
78671;BME280;68277;52.724;6.516;2023-05-09T02:34:45;101591.03;;;14.34;82.91
78671;BME280;68277;52.724;6.516;2023-05-09T02:37:12;101645.16;;;14.70;82.96
78671;BME280;68277;52.724;6.516;2023-05-09T02:39:37;101645.09;;;14.73;82.68
78671;BME280;68277;52.724;6.516;2023-05-09T02:42:12;101590.84;;;14.42;86.01
78671;BME280;68277;52.724;6.516;2023-05-09T02:44:37;101638.16;;;14.66;83.87
78671;BME280;68277;52.724;6.516;2023-05-09T02:47:05;101649.50;;;14.74;83.50
78671;BME280;68277;52.724;6.516;2023-05-09T02:49:31;101645.97;;;14.74;83.45
78671;BME280;68277;52.724;6.516;2023-05-09T02:52:07;101605.63;;;14.55;83.83
78671;BME280;68277;52.724;6.516;2023-05-09T02:54:32;101626.59;;;14.67;83.75
78671;BME280;68277;52.724;6.516;2023-05-09T02:56:58;101618.69;;;14.64;83.56
78671;BME280;68277;52.724;6.516;2023-05-09T02:59:25;101615.13;;;14.64;84.28
78671;BME280;68277;52.724;6.516;2023-05-09T03:01:51;101634.22;;;14.81;84.10
78671;BME280;68277;52.724;6.516;2023-05-09T03:04:17;101637.72;;;14.83;82.85
78671;BME280;68277;52.724;6.516;2023-05-09T03:06:42;101612.28;;;14.70;82.87
78671;BME280;68277;52.724;6.516;2023-05-09T03:09:08;101606.13;;;14.69;83.20
78671;BME280;68277;52.724;6.516;2023-05-09T03:11:37;101605.19;;;14.70;83.53
78671;BME280;68277;52.724;6.516;2023-05-09T03:14:03;101610.38;;;14.76;83.71
78671;BME280;68277;52.724;6.516;2023-05-09T03:16:29;101619.22;;;14.77;85.70
78671;BME280;68277;52.724;6.516;2023-05-09T03:18:55;101587.63;;;14.63;83.99
78671;BME280;68277;52.724;6.516;2023-05-09T03:21:21;101585.84;;;14.64;83.90
78671;BME280;68277;52.724;6.516;2023-05-09T03:23:46;101613.84;;;14.78;83.95
78671;BME280;68277;52.724;6.516;2023-05-09T03:26:12;101599.91;;;14.69;86.79
78671;BME280;68277;52.724;6.516;2023-05-09T03:28:38;101593.81;;;14.64;86.44
78671;BME280;68277;52.724;6.516;2023-05-09T03:31:05;101581.41;;;14.63;84.12
78671;BME280;68277;52.724;6.516;2023-05-09T03:33:30;101594.59;;;14.69;84.60
78671;BME280;68277;52.724;6.516;2023-05-09T03:35:58;101595.41;;;14.71;85.04
78671;BME280;68277;52.724;6.516;2023-05-09T03:38:25;101600.56;;;14.77;85.12
78671;BME280;68277;52.724;6.516;2023-05-09T03:40:52;101560.28;;;14.57;85.46
78671;BME280;68277;52.724;6.516;2023-05-09T03:43:18;101580.44;;;14.65;85.20
78671;BME280;68277;52.724;6.516;2023-05-09T03:45:44;101562.03;;;14.58;84.99
78671;BME280;68277;52.724;6.516;2023-05-09T03:48:11;101572.38;;;14.68;87.16
78671;BME280;68277;52.724;6.516;2023-05-09T03:50:42;101594.19;;;14.82;88.66
78671;BME280;68277;52.724;6.516;2023-05-09T03:53:09;101595.03;;;14.84;87.15
78671;BME280;68277;52.724;6.516;2023-05-09T03:55:35;101574.78;;;14.77;87.85
78671;BME280;68277;52.724;6.516;2023-05-09T03:58:02;101557.16;;;14.73;85.84
78671;BME280;68277;52.724;6.516;2023-05-09T04:00:28;101578.91;;;14.89;85.42
78671;BME280;68277;52.724;6.516;2023-05-09T04:03:03;101556.13;;;14.79;85.86
78671;BME280;68277;52.724;6.516;2023-05-09T04:05:37;101575.38;;;14.88;85.55
78671;BME280;68277;52.724;6.516;2023-05-09T04:08:05;101561.31;;;14.83;88.08
78671;BME280;68277;52.724;6.516;2023-05-09T04:10:31;101556.97;;;14.79;88.85
78671;BME280;68277;52.724;6.516;2023-05-09T04:12:57;101543.06;;;14.68;88.99
78671;BME280;68277;52.724;6.516;2023-05-09T04:15:23;101560.44;;;14.83;89.70
78671;BME280;68277;52.724;6.516;2023-05-09T04:17:49;101561.25;;;14.85;89.00
78671;BME280;68277;52.724;6.516;2023-05-09T04:20:15;101548.94;;;14.81;90.30
78671;BME280;68277;52.724;6.516;2023-05-09T04:22:42;101566.38;;;14.92;91.14
78671;BME280;68277;52.724;6.516;2023-05-09T04:25:07;101539.25;;;14.78;89.35
78671;BME280;68277;52.724;6.516;2023-05-09T04:27:39;101540.13;;;14.79;91.70
78671;BME280;68277;52.724;6.516;2023-05-09T04:30:05;101568.91;;;14.97;92.39
78671;BME280;68277;52.724;6.516;2023-05-09T04:32:31;101547.88;;;14.86;92.34
78671;BME280;68277;52.724;6.516;2023-05-09T04:34:57;101534.75;;;14.80;90.12
78671;BME280;68277;52.724;6.516;2023-05-09T04:37:26;101537.28;;;14.85;89.16
78671;BME280;68277;52.724;6.516;2023-05-09T04:39:52;101568.84;;;14.98;91.71
78671;BME280;68277;52.724;6.516;2023-05-09T04:42:24;101519.03;;;14.71;90.26
78671;BME280;68277;52.724;6.516;2023-05-09T04:44:49;101546.06;;;14.88;89.06
78671;BME280;68277;52.724;6.516;2023-05-09T04:47:17;101547.78;;;14.89;89.32
78671;BME280;68277;52.724;6.516;2023-05-09T04:49:43;101544.31;;;14.87;89.34
78671;BME280;68277;52.724;6.516;2023-05-09T04:52:08;101541.72;;;14.84;88.95
78671;BME280;68277;52.724;6.516;2023-05-09T04:54:34;101549.59;;;14.89;89.00
78671;BME280;68277;52.724;6.516;2023-05-09T04:57:01;101539.16;;;14.81;89.63
78671;BME280;68277;52.724;6.516;2023-05-09T04:59:27;101559.91;;;15.01;93.37
78671;BME280;68277;52.724;6.516;2023-05-09T05:01:53;101520.63;;;14.77;90.40
78671;BME280;68277;52.724;6.516;2023-05-09T05:04:19;101534.53;;;14.86;89.39
78671;BME280;68277;52.724;6.516;2023-05-09T05:06:47;101518.66;;;14.83;93.19
78671;BME280;68277;52.724;6.516;2023-05-09T05:09:14;101522.16;;;14.85;91.63
78671;BME280;68277;52.724;6.516;2023-05-09T05:11:39;101522.16;;;14.85;90.17
78671;BME280;68277;52.724;6.516;2023-05-09T05:14:05;101507.28;;;14.77;88.62
78671;BME280;68277;52.724;6.516;2023-05-09T05:16:31;101525.38;;;14.96;87.67
78671;BME280;68277;52.724;6.516;2023-05-09T05:18:56;101534.13;;;15.01;87.86
78671;BME280;68277;52.724;6.516;2023-05-09T05:21:22;101487.53;;;14.84;87.36
78671;BME280;68277;52.724;6.516;2023-05-09T05:23:48;101501.59;;;14.89;89.22
78671;BME280;68277;52.724;6.516;2023-05-09T05:26:14;101525.97;;;15.06;87.14
78671;BME280;68277;52.724;6.516;2023-05-09T05:28:40;101516.41;;;14.99;87.09
78671;BME280;68277;52.724;6.516;2023-05-09T05:31:06;101498.81;;;14.93;87.52
78671;BME280;68277;52.724;6.516;2023-05-09T05:33:31;101520.44;;;15.12;87.47
78671;BME280;68277;52.724;6.516;2023-05-09T05:35:58;101524.00;;;15.13;88.11
78671;BME280;68277;52.724;6.516;2023-05-09T05:38:23;101513.38;;;15.11;88.18
78671;BME280;68277;52.724;6.516;2023-05-09T05:40:52;101486.22;;;14.98;88.39
78671;BME280;68277;52.724;6.516;2023-05-09T05:43:19;101501.91;;;15.09;87.87
78671;BME280;68277;52.724;6.516;2023-05-09T05:45:44;101502.59;;;15.16;88.20
78671;BME280;68277;52.724;6.516;2023-05-09T05:48:14;101482.28;;;15.12;88.94
78671;BME280;68277;52.724;6.516;2023-05-09T05:50:40;101477.84;;;15.11;87.59
78671;BME280;68277;52.724;6.516;2023-05-09T05:53:06;101466.44;;;15.05;87.70
78671;BME280;68277;52.724;6.516;2023-05-09T05:55:31;101492.50;;;15.25;90.05
78671;BME280;68277;52.724;6.516;2023-05-09T05:57:57;101479.31;;;15.21;87.83
78671;BME280;68277;52.724;6.516;2023-05-09T06:00:23;101470.44;;;15.20;89.19
78671;BME280;68277;52.724;6.516;2023-05-09T06:02:57;101485.25;;;15.29;87.69
78671;BME280;68277;52.724;6.516;2023-05-09T06:05:32;101468.66;;;15.21;87.91
78671;BME280;68277;52.724;6.516;2023-05-09T06:07:57;101464.06;;;15.26;87.53
78671;BME280;68277;52.724;6.516;2023-05-09T06:10:23;101465.59;;;15.33;87.44
78671;BME280;68277;52.724;6.516;2023-05-09T06:12:48;101464.78;;;15.31;87.40
78671;BME280;68277;52.724;6.516;2023-05-09T06:15:14;101466.44;;;15.35;87.46
78671;BME280;68277;52.724;6.516;2023-05-09T06:17:44;101461.09;;;15.35;87.59
78671;BME280;68277;52.724;6.516;2023-05-09T06:20:10;101472.38;;;15.43;87.56
78671;BME280;68277;52.724;6.516;2023-05-09T06:22:35;101430.34;;;15.23;87.21
78671;BME280;68277;52.724;6.516;2023-05-09T06:25:01;101468.66;;;15.48;87.49
78671;BME280;68277;52.724;6.516;2023-05-09T06:27:26;101434.31;;;15.38;87.04
78671;BME280;68277;52.724;6.516;2023-05-09T06:29:52;101445.47;;;15.50;87.49
78671;BME280;68277;52.724;6.516;2023-05-09T06:32:17;101441.75;;;15.56;87.35
78671;BME280;68277;52.724;6.516;2023-05-09T06:34:43;101433.75;;;15.56;87.01
78671;BME280;68277;52.724;6.516;2023-05-09T06:37:09;101444.19;;;15.62;87.48
78671;BME280;68277;52.724;6.516;2023-05-09T06:39:34;101425.75;;;15.56;86.94
78671;BME280;68277;52.724;6.516;2023-05-09T06:42:00;101457.94;;;15.76;86.77
78671;BME280;68277;52.724;6.516;2023-05-09T06:44:30;101417.75;;;15.56;87.13
78671;BME280;68277;52.724;6.516;2023-05-09T06:46:56;101450.91;;;15.73;88.69
78671;BME280;68277;52.724;6.516;2023-05-09T06:49:22;101434.34;;;15.64;86.81
78671;BME280;68277;52.724;6.516;2023-05-09T06:51:47;101422.13;;;15.57;87.01
78671;BME280;68277;52.724;6.516;2023-05-09T06:54:13;101417.84;;;15.53;86.95
78671;BME280;68277;52.724;6.516;2023-05-09T06:56:38;101433.44;;;15.65;86.84
78671;BME280;68277;52.724;6.516;2023-05-09T06:59:04;101437.78;;;15.67;86.82
78671;BME280;68277;52.724;6.516;2023-05-09T07:01:30;101413.16;;;15.59;86.74
78671;BME280;68277;52.724;6.516;2023-05-09T07:03:56;101405.06;;;15.62;86.66
78671;BME280;68277;52.724;6.516;2023-05-09T07:06:23;101389.91;;;15.63;86.40
78671;BME280;68277;52.724;6.516;2023-05-09T07:08:48;101400.84;;;15.82;86.24
78671;BME280;68277;52.724;6.516;2023-05-09T07:11:14;101406.78;;;15.90;86.20
78671;BME280;68277;52.724;6.516;2023-05-09T07:13:40;101397.03;;;15.89;86.49
78671;BME280;68277;52.724;6.516;2023-05-09T07:16:06;101396.94;;;15.90;86.18
78671;BME280;68277;52.724;6.516;2023-05-09T07:18:32;101384.56;;;15.89;85.89
78671;BME280;68277;52.724;6.516;2023-05-09T07:20:58;101378.34;;;15.89;86.63
78671;BME280;68277;52.724;6.516;2023-05-09T07:23:23;101368.53;;;15.89;86.11
78671;BME280;68277;52.724;6.516;2023-05-09T07:25:57;101388.31;;;16.08;86.21
78671;BME280;68277;52.724;6.516;2023-05-09T07:28:23;101379.34;;;16.09;85.75
78671;BME280;68277;52.724;6.516;2023-05-09T07:30:48;101378.09;;;16.19;85.55
78671;BME280;68277;52.724;6.516;2023-05-09T07:33:14;101372.59;;;16.24;85.11
78671;BME280;68277;52.724;6.516;2023-05-09T07:35:39;101384.72;;;16.32;85.25
78671;BME280;68277;52.724;6.516;2023-05-09T07:38:05;101386.66;;;16.29;85.90
78671;BME280;68277;52.724;6.516;2023-05-09T07:40:31;101367.69;;;16.12;86.25
78671;BME280;68277;52.724;6.516;2023-05-09T07:42:58;101385.94;;;16.24;86.02
78671;BME280;68277;52.724;6.516;2023-05-09T07:45:23;101393.78;;;16.28;85.78
78671;BME280;68277;52.724;6.516;2023-05-09T07:47:49;101370.44;;;16.10;86.29
78671;BME280;68277;52.724;6.516;2023-05-09T07:50:14;101365.13;;;16.09;85.52
78671;BME280;68277;52.724;6.516;2023-05-09T07:52:41;101358.06;;;16.08;85.73
78671;BME280;68277;52.724;6.516;2023-05-09T07:55:06;101369.97;;;16.22;85.72
78671;BME280;68277;52.724;6.516;2023-05-09T07:57:32;101375.84;;;16.32;85.49
78671;BME280;68277;52.724;6.516;2023-05-09T07:59:57;101361.66;;;16.30;84.94
78671;BME280;68277;52.724;6.516;2023-05-09T08:02:23;101356.31;;;16.30;84.53
78671;BME280;68277;52.724;6.516;2023-05-09T08:04:48;101351.69;;;16.35;84.64
78671;BME280;68277;52.724;6.516;2023-05-09T08:07:14;101350.69;;;16.37;84.12
78671;BME280;68277;52.724;6.516;2023-05-09T08:09:39;101345.25;;;16.40;84.43
78671;BME280;68277;52.724;6.516;2023-05-09T08:12:05;101352.38;;;16.40;84.28
78671;BME280;68277;52.724;6.516;2023-05-09T08:14:30;101360.88;;;16.51;84.30
78671;BME280;68277;52.724;6.516;2023-05-09T08:16:57;101356.13;;;16.59;84.03
78671;BME280;68277;52.724;6.516;2023-05-09T08:19:23;101341.19;;;16.54;83.62
78671;BME280;68277;52.724;6.516;2023-05-09T08:21:51;101340.19;;;16.56;83.70
78671;BME280;68277;52.724;6.516;2023-05-09T08:24:19;101338.31;;;16.58;83.53
78671;BME280;68277;52.724;6.516;2023-05-09T08:26:44;101313.88;;;16.46;83.03
78671;BME280;68277;52.724;6.516;2023-05-09T08:29:10;101324.81;;;16.63;82.91
78671;BME280;68277;52.724;6.516;2023-05-09T08:31:36;101341.19;;;16.77;82.63
78671;BME280;68277;52.724;6.516;2023-05-09T08:34:01;101305.03;;;16.67;82.48
78671;BME280;68277;52.724;6.516;2023-05-09T08:36:27;101313.41;;;16.79;81.89
78671;BME280;68277;52.724;6.516;2023-05-09T08:38:52;101315.41;;;16.96;81.64
78671;BME280;68277;52.724;6.516;2023-05-09T08:41:23;101283.97;;;17.02;81.39
78671;BME280;68277;52.724;6.516;2023-05-09T08:43:49;101298.84;;;17.30;80.01
78671;BME280;68277;52.724;6.516;2023-05-09T08:46:15;101281.25;;;17.44;79.77
78671;BME280;68277;52.724;6.516;2023-05-09T08:48:41;101306.69;;;17.74;79.63
78671;BME280;68277;52.724;6.516;2023-05-09T08:51:09;101290.00;;;17.88;78.66
78671;BME280;68277;52.724;6.516;2023-05-09T08:53:36;101293.94;;;18.00;79.33
78671;BME280;68277;52.724;6.516;2023-05-09T08:56:02;101298.91;;;18.09;78.92
78671;BME280;68277;52.724;6.516;2023-05-09T08:58:28;101294.00;;;17.98;78.53
78671;BME280;68277;52.724;6.516;2023-05-09T09:00:55;101298.34;;;17.82;78.76
78671;BME280;68277;52.724;6.516;2023-05-09T09:03:22;101285.16;;;17.57;78.46
78671;BME280;68277;52.724;6.516;2023-05-09T09:05:50;101301.22;;;17.57;78.71
78671;BME280;68277;52.724;6.516;2023-05-09T09:08:17;101283.66;;;17.50;78.80
78671;BME280;68277;52.724;6.516;2023-05-09T09:10:44;101295.53;;;17.65;78.54
78671;BME280;68277;52.724;6.516;2023-05-09T09:13:14;101273.19;;;17.66;78.34
78671;BME280;68277;52.724;6.516;2023-05-09T09:15:43;101292.69;;;17.88;78.44
78671;BME280;68277;52.724;6.516;2023-05-09T09:18:22;101269.75;;;17.83;76.16
78671;BME280;68277;52.724;6.516;2023-05-09T09:20:55;101257.66;;;17.93;77.59
78671;BME280;68277;52.724;6.516;2023-05-09T09:23:24;101274.63;;;18.12;76.59
78671;BME280;68277;52.724;6.516;2023-05-09T09:25:57;101272.75;;;18.32;77.41
78671;BME280;68277;52.724;6.516;2023-05-09T09:28:23;101254.22;;;18.47;77.09
78671;BME280;68277;52.724;6.516;2023-05-09T09:30:48;101259.41;;;18.68;77.00
78671;BME280;68277;52.724;6.516;2023-05-09T09:33:25;101256.03;;;18.65;75.83
78671;BME280;68277;52.724;6.516;2023-05-09T09:35:52;101270.78;;;18.73;75.45
78671;BME280;68277;52.724;6.516;2023-05-09T09:38:19;101255.66;;;18.54;75.34
78671;BME280;68277;52.724;6.516;2023-05-09T09:43:16;101236.06;;;18.34;74.36
78671;BME280;68277;52.724;6.516;2023-05-09T09:45:42;101249.28;;;18.56;74.43
78671;BME280;68277;52.724;6.516;2023-05-09T09:48:07;101257.69;;;18.67;73.62
78671;BME280;68277;52.724;6.516;2023-05-09T09:50:33;101254.38;;;18.62;73.10
78671;BME280;68277;52.724;6.516;2023-05-09T09:53:00;101225.94;;;18.39;73.53
78671;BME280;68277;52.724;6.516;2023-05-09T09:55:27;101239.22;;;18.61;73.38
78671;BME280;68277;52.724;6.516;2023-05-09T09:57:54;101252.84;;;18.57;72.04
78671;BME280;68277;52.724;6.516;2023-05-09T10:00:26;101244.88;;;18.55;72.79
78671;BME280;68277;52.724;6.516;2023-05-09T10:02:57;101220.91;;;18.52;72.08
78671;BME280;68277;52.724;6.516;2023-05-09T10:05:28;101237.06;;;18.86;73.26
78671;BME280;68277;52.724;6.516;2023-05-09T10:07:58;101232.19;;;19.11;71.09
78671;BME280;68277;52.724;6.516;2023-05-09T10:10:26;101210.19;;;19.39;69.77
78671;BME280;68277;52.724;6.516;2023-05-09T10:12:55;101195.56;;;19.45;69.57
78671;BME280;68277;52.724;6.516;2023-05-09T10:15:21;101228.81;;;19.59;70.36
78671;BME280;68277;52.724;6.516;2023-05-09T10:17:52;101197.06;;;19.33;68.82
78671;BME280;68277;52.724;6.516;2023-05-09T10:20:20;101187.16;;;19.34;67.90
78671;BME280;68277;52.724;6.516;2023-05-09T10:22:46;101206.63;;;19.39;70.46
78671;BME280;68277;52.724;6.516;2023-05-09T10:25:19;101210.47;;;19.50;68.48
78671;BME280;68277;52.724;6.516;2023-05-09T10:27:47;101207.91;;;19.64;65.73
78671;BME280;68277;52.724;6.516;2023-05-09T10:30:26;101219.41;;;19.84;65.89
78671;BME280;68277;52.724;6.516;2023-05-09T10:35:31;101194.13;;;20.03;63.62
78671;BME280;68277;52.724;6.516;2023-05-09T10:37:58;101184.22;;;19.88;64.41
78671;BME280;68277;52.724;6.516;2023-05-09T10:40:26;101203.38;;;19.98;62.62
78671;BME280;68277;52.724;6.516;2023-05-09T10:42:52;101185.75;;;19.76;65.32
78671;BME280;68277;52.724;6.516;2023-05-09T10:45:19;101169.13;;;19.70;65.79
78671;BME280;68277;52.724;6.516;2023-05-09T10:47:49;101175.38;;;19.86;64.63
78671;BME280;68277;52.724;6.516;2023-05-09T10:50:17;101184.06;;;19.91;64.25
78671;BME280;68277;52.724;6.516;2023-05-09T10:55:47;101190.94;;;20.12;62.47
78671;BME280;68277;52.724;6.516;2023-05-09T10:58:28;101182.25;;;20.07;62.68
78671;BME280;68277;52.724;6.516;2023-05-09T11:01:01;101185.56;;;19.97;63.16
78671;BME280;68277;52.724;6.516;2023-05-09T11:03:57;101186.47;;;19.80;61.48
78671;BME280;68277;52.724;6.516;2023-05-09T11:06:46;101183.34;;;19.72;63.54
78671;BME280;68277;52.724;6.516;2023-05-09T11:12:00;101171.34;;;19.62;64.30
78671;BME280;68277;52.724;6.516;2023-05-09T11:17:26;101148.31;;;19.58;64.80
78671;BME280;68277;52.724;6.516;2023-05-09T11:22:23;101162.72;;;19.88;61.84
78671;BME280;68277;52.724;6.516;2023-05-09T11:25:08;101162.47;;;19.93;62.79
78671;BME280;68277;52.724;6.516;2023-05-09T11:27:45;101132.50;;;19.85;62.30
78671;BME280;68277;52.724;6.516;2023-05-09T11:30:18;101135.53;;;19.94;62.27
78671;BME280;68277;52.724;6.516;2023-05-09T11:32:51;101145.06;;;20.00;62.88
78671;BME280;68277;52.724;6.516;2023-05-09T11:35:22;101124.19;;;19.89;62.53
78671;BME280;68277;52.724;6.516;2023-05-09T11:37:51;101138.22;;;19.94;60.81
78671;BME280;68277;52.724;6.516;2023-05-09T11:40:20;101108.94;;;19.90;62.21
78671;BME280;68277;52.724;6.516;2023-05-09T11:42:50;101120.38;;;20.09;62.73
78671;BME280;68277;52.724;6.516;2023-05-09T11:45:20;101094.97;;;20.14;63.08
78671;BME280;68277;52.724;6.516;2023-05-09T11:47:48;101105.31;;;20.22;62.91
78671;BME280;68277;52.724;6.516;2023-05-09T11:50:15;101097.31;;;20.20;60.87
78671;BME280;68277;52.724;6.516;2023-05-09T11:52:41;101084.41;;;20.11;62.50
78671;BME280;68277;52.724;6.516;2023-05-09T11:55:11;101112.44;;;20.23;61.77
78671;BME280;68277;52.724;6.516;2023-05-09T11:57:45;101077.56;;;20.06;61.96
78671;BME280;68277;52.724;6.516;2023-05-09T12:00:15;101094.88;;;20.16;63.10
78671;BME280;68277;52.724;6.516;2023-05-09T12:02:43;101101.81;;;20.20;62.11
78671;BME280;68277;52.724;6.516;2023-05-09T12:05:11;101102.41;;;20.09;62.67
78671;BME280;68277;52.724;6.516;2023-05-09T12:07:37;101086.91;;;19.99;63.35
78671;BME280;68277;52.724;6.516;2023-05-09T12:10:09;101091.22;;;20.17;63.54
78671;BME280;68277;52.724;6.516;2023-05-09T12:12:41;101084.81;;;20.19;62.83
78671;BME280;68277;52.724;6.516;2023-05-09T12:15:10;101076.63;;;20.22;63.44
78671;BME280;68277;52.724;6.516;2023-05-09T12:17:37;101088.63;;;20.31;63.33
78671;BME280;68277;52.724;6.516;2023-05-09T12:20:04;101056.94;;;20.06;62.85
78671;BME280;68277;52.724;6.516;2023-05-09T12:22:30;101089.00;;;20.25;63.92
78671;BME280;68277;52.724;6.516;2023-05-09T12:25:04;101052.00;;;19.99;63.47
78671;BME280;68277;52.724;6.516;2023-05-09T12:27:32;101067.78;;;19.89;63.96
78671;BME280;68277;52.724;6.516;2023-05-09T12:29:59;101076.97;;;19.85;64.64
78671;BME280;68277;52.724;6.516;2023-05-09T12:32:26;101068.47;;;19.61;64.91
78671;BME280;68277;52.724;6.516;2023-05-09T12:34:56;101073.50;;;19.52;66.14
78671;BME280;68277;52.724;6.516;2023-05-09T12:37:22;101073.81;;;19.46;66.89
78671;BME280;68277;52.724;6.516;2023-05-09T12:40:13;101063.13;;;19.29;68.54
78671;BME280;68277;52.724;6.516;2023-05-09T12:42:43;101071.13;;;19.13;68.92
78671;BME280;68277;52.724;6.516;2023-05-09T12:45:09;101042.06;;;18.88;69.77
78671;BME280;68277;52.724;6.516;2023-05-09T12:47:36;101038.88;;;18.65;70.86
78671;BME280;68277;52.724;6.516;2023-05-09T12:50:04;101071.34;;;18.59;74.58
78671;BME280;68277;52.724;6.516;2023-05-09T12:52:37;101051.06;;;18.36;74.56
78671;BME280;68277;52.724;6.516;2023-05-09T12:55:07;101072.94;;;18.46;73.39
78671;BME280;68277;52.724;6.516;2023-05-09T12:57:34;101067.00;;;18.39;73.04
78671;BME280;68277;52.724;6.516;2023-05-09T13:00:03;101064.47;;;18.36;73.69
78671;BME280;68277;52.724;6.516;2023-05-09T13:02:39;101064.56;;;18.34;75.08
78671;BME280;68277;52.724;6.516;2023-05-09T13:05:06;101068.25;;;18.32;74.55
78671;BME280;68277;52.724;6.516;2023-05-09T13:07:39;101071.41;;;18.23;76.17
78671;BME280;68277;52.724;6.516;2023-05-09T13:10:10;101067.06;;;18.20;74.83
78671;BME280;68277;52.724;6.516;2023-05-09T13:12:37;101060.69;;;18.04;76.67
78671;BME280;68277;52.724;6.516;2023-05-09T13:15:03;101056.59;;;17.97;76.96